Tiempo atmosférico en la estación meteorológica de Luzaide/Valcarlos, Navarra (334 m.)



Fecha
DESCASC
Temp. máxima en grados centígrados (hora)
DESCASC
Temp. mínima en grados centígrados (hora)
DESCASC
Temp. media en grados centígrados
DESCASC
Racha de viento máxima en m/sg (hora)
DESCASC
Velocidad máxima media en intervalos de 10 minutos(hora)
DESCASC
Precipitaciones diarias en mm
DESCASC
Precipitaciones de 00:00 a 06:00 en mm
DESCASC
Precipitaciones de 06:00 a 12:00 en mm
DESCASC
Precipitaciones de 12:00 a 18:00 en mm
DESCASC
Precipitaciones de 18:00 a 24:00 en mm
DESCASC
24-09-2020 23 (16:00) 13.9 (23:59) 18.4 10 (17:10) 6.39 (17:20) 4.8 0.4 0 0 4.4
23-09-2020 25 (14:10) 12.7 (00:00) 18.8 8.33 (11:50) 4.72 (17:40) 9.2 0 0 1 8.2
22-09-2020 22.9 (14:50) 13.5 (00:00) 18.2 5.83 (15:10) 3.33 (14:40) 0 0 0 0 0
21-09-2020 21.1 (15:40) 14.2 (00:00) 17.7 5.28 (12:20) 3.61 (12:20) 7.4 0 5.2 2 0.2
20-09-2020 24.5 (14:50) 13.1 (00:00) 18.8 6.39 (16:50) 4.17 (16:40) 0 0 0 0 0
19-09-2020 24.8 (15:50) 16.1 (00:00) 20.4 11.39 (12:30) 5.28 (01:30) 12.2 0 0 9.6 2.6
18-09-2020 28.2 (16:00) 16.8 (00:00) 22.5 11.67 (02:40) 5 (02:40) 0.4 0 0 0 0.4
17-09-2020 29.6 (18:00) 16 (00:00) 22.8 8.89 (17:20) 5.56 (14:30) 0 0 0 0 0
16-09-2020 29.8 (16:00) 15.4 (00:00) 22.6 5.83 (14:40) 3.61 (14:40) 0 0 0 0 0
15-09-2020 32.2 (15:50) 17.4 (00:00) 24.8 9.72 (04:20) 4.72 (16:10) 0.6 0.4 0.2 0 0
14-09-2020 34.2 (15:20) 20.5 (00:00) 27.4 11.39 (04:40) 4.72 (11:30) 0 0 0 0 0
13-09-2020 33.7 (16:00) 13.2 (00:00) 23.5 8.33 (14:50) 3.89 (14:50) 0 0 0 0 0
12-09-2020 26.1 (15:50) 13.4 (00:00) 19.8 6.67 (12:40) 4.17 (12:20) 0 0 0 0 0
11-09-2020 24.6 (16:10) 14.4 (00:00) 19.5 6.39 (17:30) 3.61 (13:00) 0 0 0 0 0
10-09-2020 24.7 (15:30) 13 (00:00) 18.9 6.11 (12:50) 4.17 (12:40) 0 0 0 0 0
09-09-2020 25.9 (15:30) 11.5 (00:00) 18.7 9.44 (17:00) 4.72 (17:10) 0 0 0 0 0
08-09-2020 23.2 (15:30) 9.1 (00:00) 16.2 6.39 (13:50) 3.61 (12:00) 0 0 0 0 0
07-09-2020 19.3 (14:00) 10.2 (08:30) 14.7 9.44 (18:50) 5.56 (15:30) 0 0 0 0 0
06-09-2020 20.7 (15:40) 14.9 (00:00) 17.8 7.78 (15:50) 4.17 (15:50) 0.4 0.4 0 0 0
05-09-2020 23.1 (11:10) 13.8 (00:00) 18.5 5.28 (22:10) 3.06 (11:40) 0 0 0 0 0
04-09-2020 33.2 (16:00) 13.1 (00:00) 23.2 7.78 (12:10) 3.61 (13:00) 0 0 0 0 0
03-09-2020 25.7 (16:00) 9.6 (00:00) 17.7 5.56 (13:00) 3.61 (12:40) 0 0 0 0 0
02-09-2020 21.9 (14:50) 10 (00:00) 15.9 7.22 (13:50) 4.17 (18:40) 0 0 0 0 0
01-09-2020 22.8 (15:00) 9.6 (00:00) 16.2 6.67 (19:10) 3.61 (17:20) 0 0 0 0 0
31-08-2020 20.7 (15:40) 8.3 (00:00) 14.5 5.83 (14:20) 3.06 (12:00) 0.2 0.2 0 0 0
30-08-2020 17.2 (16:00) 11.5 (00:00) 14.4 7.22 (18:10) 4.44 (18:00) 17.8 13.4 2.2 0.2 2
29-08-2020 20.4 (13:20) 11.4 (00:00) 15.9 5.56 (08:40) 2.5 (14:50) 21.4 0 0 3 18.4
28-08-2020 20.5 (00:00) 13.7 (00:00) 17.1 6.39 (16:10) 3.89 (13:10) 2.4 0 0.4 1.6 0.4

Gráficas

Temp. máximas Temp. mínimas Temp. medias Precipitaciones Rachas de viento máximas Velocidades máximas media en intervalos de 10 minutos

Datos horarios

Fecha y hora oficial Temperatura (ºC) Velocidad del viento (km/h) Dirección del viento Racha (km/h) Dirección de racha Precipitación (mm) Presión (hPa) Tendencia (hPa) Humedad (%)
2020-09-26 23:00:00 11.3 19 Norte 41 Norte 3.6 -- -- 97
2020-09-26 22:00:00 14.4 18 Norte 32 Sudeste 9 -- -- 95
2020-09-26 21:00:00 15.3 13 Sudeste 30 Sur 2.8 -- -- 90
2020-09-26 20:00:00 14.2 7 Sur 18 Sudeste 0.4 -- -- 92
2020-09-26 19:00:00 14 8 Sur 29 Sur 0.8 -- -- 90
2020-09-26 18:00:00 13.9 4 Sudoeste 29 Sur 0 -- -- 89
2020-09-26 17:00:00 14 7 Sur 18 Sur 0.2 -- -- 89
2020-09-26 16:00:00 13.7 10 Sur 24 Noroeste 1 -- -- 91
2020-09-26 15:00:00 13.2 7 Sur 15 Sudoeste 1 -- -- 95
2020-09-26 14:00:00 13.1 0 Calma 7 Norte 0.4 -- -- 97
2020-09-26 13:00:00 12.3 0 Calma 5 Sur 0.2 -- -- 95
2020-09-26 12:00:00 11.7 2 Sur 5 Noroeste 0.6 -- -- 96
2020-09-26 11:00:00 11.2 2 Sur 10 Noroeste 0.8 -- -- 97
2020-09-26 10:00:00 10.6 3 Noroeste 12 Norte 0.8 -- -- 97
2020-09-26 09:00:00 10.4 7 Norte 20 Norte 1.2 -- -- 95
2020-09-26 08:00:00 10.5 5 Nordeste 24 Norte 1.4 -- -- 91
2020-09-26 07:00:00 9.8 7 Norte 21 Nordeste 1.2 -- -- 96
2020-09-26 06:00:00 9.9 7 Norte 18 Nordeste 1.4 -- -- 94
2020-09-26 05:00:00 9.9 7 Norte 20 Nordeste 2.8 -- -- 93
2020-09-26 04:00:00 10.1 5 Nordeste 30 Norte 1.6 -- -- 91
2020-09-26 03:00:00 9.5 3 Nordeste 10 Nordeste 2.2 -- -- 97
2020-09-26 02:00:00 9.5 7 Noroeste 18 Norte 1.6 -- -- 97
2020-09-26 01:00:00 9.5 11 Norte 26 Norte 2.2 -- -- 96
2020-09-26 00:00:00 10.3 9 Norte 23 Nordeste 4 -- -- 92
2020-09-25 23:00:00 9.9 5 Norte 28 Norte 3.4 -- -- 95
2020-09-25 22:00:00 10.9 8 Norte 28 Nordeste 1.4 -- -- 83
2020-09-25 21:00:00 11.3 14 Norte 41 Noroeste 0.8 -- -- 79
2020-09-25 20:00:00 10.7 9 Norte 32 Nordeste 0.8 -- -- 85
2020-09-25 19:00:00 11.5 8 Este 34 Este 0.8 -- -- 78
2020-09-25 18:00:00 11.4 9 Nordeste 31 Nordeste 1.8 -- -- 81
2020-09-25 17:00:00 12.2 10 Sur 32 Sur 0.2 -- -- 75
2020-09-25 16:00:00 12.1 15 Sur 39 Sudoeste 0.8 -- -- 75
2020-09-25 15:00:00 10.7 10 Sudeste 21 Sur 3.8 -- -- 86
2020-09-25 14:00:00 11.2 8 Sudeste 32 Sur 2.8 -- -- 88
2020-09-25 13:00:00 10.5 12 Sur 27 Sur 4.6 -- -- 86
2020-09-25 12:00:00 11.5 7 Sur 24 Sudeste 1.8 -- -- 79
2020-09-25 11:00:00 9.9 6 Sur 21 Sur 2.4 -- -- 88
2020-09-25 10:00:00 9.7 8 Sur 23 Sudoeste 3.4 -- -- 89
2020-09-25 09:00:00 8.7 7 Sur 21 Sur 5.2 -- -- 92
2020-09-25 08:00:00 9.2 4 Sudoeste 26 Sudeste 2 -- -- 89
2020-09-25 07:00:00 9.9 9 Sur 28 Oeste 0.4 -- -- 80
2020-09-25 06:00:00 9.9 8 Sur 35 Sur 2.4 -- -- 82
2020-09-25 05:00:00 10.1 6 Sur 36 Sudoeste 1 -- -- 85
2020-09-25 04:00:00 11.1 14 Sur 35 Sudoeste 0.6 -- -- 82
2020-09-25 03:00:00 11.3 9 Sur 40 Sur 1 -- -- 83
2020-09-25 02:00:00 12.1 12 Sur 27 Sudoeste 1 -- -- 85
2020-09-25 01:00:00 12.9 12 Sur 36 Oeste 2.4 -- -- 85
2020-09-25 00:00:00 13.9 5 Sudoeste 22 Sur 2.4 -- -- 88
2020-09-24 23:00:00 14.3 5 Sur 19 Sudoeste 0.4 -- -- 90
2020-09-24 22:00:00 14.8 3 Sur 18 Sur 1.6 -- -- 89
2020-09-24 21:00:00 16.5 3 Sudoeste 14 Sudoeste 0 -- -- 76
2020-09-24 20:00:00 16.9 3 Noroeste 13 Norte 0 -- -- 80
2020-09-24 19:00:00 17.5 9 Norte 23 Norte 0 -- -- 78
2020-09-24 18:00:00 18.4 15 Norte 36 Norte 0 -- -- 76
2020-09-24 17:00:00 22.3 4 Sudeste 28 Sudeste 0 -- -- 49
2020-09-24 16:00:00 23 10 Sudeste 21 Sur 0 -- -- 50
2020-09-24 15:00:00 21.6 10 Sur 28 Sur 0 -- -- 59
2020-09-24 14:00:00 21.7 9 Sur 21 Sudoeste 0 -- -- 59
2020-09-24 13:00:00 21.1 5 Sudeste 18 Sur 0 -- -- 66
2020-09-24 12:00:00 18.8 5 Sudeste 14 Norte 0 -- -- 85
2020-09-24 11:00:00 17.3 2 Este 7 Nordeste 0 -- -- 97
2020-09-24 10:00:00 15.5 0 Calma 4 Nordeste 0 -- -- 98
2020-09-24 09:00:00 14.7 3 Sur 8 Sur 0 -- -- 98
2020-09-24 08:00:00 14.5 3 Sur 4 Sur 0 -- -- 98
2020-09-24 07:00:00 14.8 0 Calma 4 Oeste 0 -- -- 97
2020-09-24 06:00:00 15.1 3 Sur 6 Sur 0 -- -- 98
2020-09-24 05:00:00 15.4 0 Calma 5 Oeste 0 -- -- 97
2020-09-24 04:00:00 16 0 Calma 4 Sudoeste 0 -- -- 97
2020-09-24 03:00:00 16.3 0 Calma 2 Sur 0 -- -- 97
2020-09-24 02:00:00 16.5 0 Calma 3 Sur 0.2 -- -- 97
2020-09-24 01:00:00 16.5 0 Calma 8 Norte 0.2 -- -- 97
2020-09-24 00:00:00 16.9 2 Norte 6 Noroeste 0.8 -- -- 97
2020-09-23 23:00:00 17.1 0 Calma 10 Norte 2.6 -- -- 97
2020-09-23 22:00:00 17.3 4 Noroeste 9 Noroeste 1.2 -- -- 96
2020-09-23 21:00:00 17.6 2 Sur 4 Sur 0.4 -- -- 95
2020-09-23 20:00:00 17.8 0 Calma 9 Noroeste 0 -- -- 94
2020-09-23 19:00:00 18.1 6 Noroeste 15 Norte 3.2 -- -- 91
2020-09-23 18:00:00 19.1 11 Norte 25 Norte 0 -- -- 84
2020-09-23 17:00:00 20.6 5 Sur 18 Sur 1 -- -- 77
2020-09-23 16:00:00 23.5 6 Sudoeste 16 Noroeste 0 -- -- 57
2020-09-23 15:00:00 24.5 6 Sur 22 Sudoeste 0 -- -- 51
2020-09-23 14:00:00 24.6 3 Este 28 Sur 0 -- -- 52
2020-09-23 13:00:00 23.6 10 Sur 28 Sur 0 -- -- 50
2020-09-23 12:00:00 24.1 13 Sur 30 Sur 0 -- -- 49
2020-09-23 11:00:00 23.4 9 Sur 26 Sur 0 -- -- 52
2020-09-23 10:00:00 19.7 7 Sur 24 Sur 0 -- -- 64
2020-09-23 09:00:00 17.7 4 Sudoeste 14 Sur 0 -- -- 73
2020-09-23 08:00:00 16.6 5 Sudoeste 20 Sur 0 -- -- 75
2020-09-23 07:00:00 14.7 4 Sudoeste 11 Sudoeste 0 -- -- 88
2020-09-23 06:00:00 14.5 6 Sur 15 Sudoeste 0 -- -- 94
2020-09-23 05:00:00 12.9 0 Calma 5 Sur 0 -- -- 97
2020-09-23 04:00:00 13.5 0 Calma 5 Sur 0 -- -- 96
2020-09-23 03:00:00 14.2 3 Sur 6 Sur 0 -- -- 96
2020-09-23 02:00:00 14.4 2 Sur 4 Sur 0 -- -- 96
2020-09-23 01:00:00 14.2 2 Sur 4 Sur 0 -- -- 96
2020-09-23 00:00:00 14.8 3 Sur 4 Sur 0 -- -- 95
2020-09-22 23:00:00 15.4 3 Sur 7 Sudoeste 0 -- -- 94
2020-09-22 22:00:00 16.1 0 Calma 4 Sur 0 -- -- 92
2020-09-22 21:00:00 17.1 0 Calma 4 Sur 0 -- -- 90
2020-09-22 20:00:00 18.6 2 Sur 6 Norte 0 -- -- 85
2020-09-22 19:00:00 20.3 3 Noroeste 15 Noroeste 0 -- -- 76
2020-09-22 18:00:00 21.2 7 Norte 15 Norte 0 -- -- 70
2020-09-22 17:00:00 21.5 7 Norte 19 Norte 0 -- -- 69
2020-09-22 16:00:00 22.7 10 Norte 21 Norte 0 -- -- 64
2020-09-22 15:00:00 22.7 10 Norte 19 Norte 0 -- -- 61
2020-09-22 14:00:00 22.5 9 Norte 17 Norte 0 -- -- 62
2020-09-22 13:00:00 22 9 Norte 14 Norte 0 -- -- 64
2020-09-22 12:00:00 20.6 9 Norte 12 Norte 0 -- -- 74
2020-09-22 11:00:00 17.7 0 Calma 5 Sudeste 0 -- -- 87
2020-09-22 10:00:00 14.5 0 Calma 6 Norte 0 -- -- 98
2020-09-22 09:00:00 13.7 2 Sur 5 Sur 0 -- -- 97
2020-09-22 08:00:00 13.7 3 Sur 4 Sur 0 -- -- 97
2020-09-22 07:00:00 14.5 0 Calma 6 Sur 0 -- -- 98
2020-09-22 06:00:00 14.5 0 Calma 9 Sur 0 -- -- 98
2020-09-22 05:00:00 14.4 2 Sudoeste 4 Sudoeste 0 -- -- 98
2020-09-22 04:00:00 14.1 2 Sur 5 Sudoeste 0 -- -- 98
2020-09-22 03:00:00 13.8 0 Calma 6 Sur 0 -- -- 97
2020-09-22 02:00:00 14.5 0 Calma 4 Sur 0 -- -- 97
2020-09-22 01:00:00 14.9 2 Sur 3 Sudeste 0 -- -- 96
2020-09-22 00:00:00 15.2 0 Calma 3 Sur 0 -- -- 95
2020-09-21 23:00:00 15.6 0 Calma 4 Sudoeste 0 -- -- 94
2020-09-21 22:00:00 16.5 0 Calma 2 Sur 0.2 -- -- 93
2020-09-21 21:00:00 16.8 2 Sur 4 Sur 0 -- -- 90
2020-09-21 20:00:00 17.8 2 Norte 12 Norte 0 -- -- 85
2020-09-21 19:00:00 18.8 6 Norte 12 Nordeste 0 -- -- 80
2020-09-21 18:00:00 19.5 6 Norte 15 Nordeste 0 -- -- 72
2020-09-21 17:00:00 20.6 5 Norte 13 Norte 0 -- -- 70
2020-09-21 16:00:00 20.6 4 Sur 10 Sudeste 0 -- -- 76
2020-09-21 15:00:00 19.2 3 Sur 10 Norte 0 -- -- 85
2020-09-21 14:00:00 19.6 3 Norte 7 Sudeste 0.2 -- -- 82
2020-09-21 13:00:00 17.2 4 Norte 19 Norte 1.8 -- -- 96
2020-09-21 12:00:00 18.5 3 Norte 6 Norte 0.6 -- -- 92
2020-09-21 11:00:00 16.8 3 Norte 5 Sur 4.2 -- -- 95
2020-09-21 10:00:00 16.7 0 Calma 4 Sudeste 0.4 -- -- 93
2020-09-21 09:00:00 15.3 0 Calma 5 Sur 0 -- -- 95
2020-09-21 08:00:00 14.8 0 Calma 5 Sur 0 -- -- 95
2020-09-21 07:00:00 14.3 4 Sur 8 Sur 0 -- -- 96
2020-09-21 06:00:00 14.5 0 Calma 4 Sudoeste 0 -- -- 95
2020-09-21 05:00:00 14.8 0 Calma 8 Sur 0 -- -- 95
2020-09-21 04:00:00 15 0 Calma 5 Sur 0 -- -- 94
2020-09-21 03:00:00 15.3 0 Calma 4 Sudoeste 0 -- -- 95
2020-09-21 02:00:00 15.9 2 Sur 5 Sudoeste 0 -- -- 94
2020-09-21 01:00:00 16.5 0 Calma 5 Sur 0 -- -- 93
2020-09-21 00:00:00 17 0 Calma 4 Sur 0 -- -- 93
2020-09-20 23:00:00 17.5 0 Calma 3 Sur 0 -- -- 92
2020-09-20 22:00:00 17.7 0 Calma 2 Norte 0 -- -- 90
2020-09-20 21:00:00 18.2 0 Calma 5 Sur 0 -- -- 88
2020-09-20 20:00:00 19.2 0 Calma 13 Noroeste 0 -- -- 82
2020-09-20 19:00:00 20.5 8 Norte 15 Norte 0 -- -- 73
2020-09-20 18:00:00 21 8 Norte 20 Norte 0 -- -- 71
2020-09-20 17:00:00 22 11 Norte 23 Norte 0 -- -- 65
2020-09-20 16:00:00 24.2 8 Norte 16 Noroeste 0 -- -- 52
2020-09-20 15:00:00 24 4 Nordeste 12 Noroeste 0 -- -- 55
2020-09-20 14:00:00 24.1 5 Noroeste 15 Sudoeste 0 -- -- 55
2020-09-20 13:00:00 24.2 4 Norte 21 Sur 0 -- -- 53
2020-09-20 12:00:00 23.3 10 Sudeste 19 Sudeste 0 -- -- 58
2020-09-20 11:00:00 21.1 9 Sudeste 18 Este 0 -- -- 64
2020-09-20 10:00:00 17.6 6 Sur 11 Sudeste 0 -- -- 83
2020-09-20 09:00:00 13.2 2 Sur 6 Sudoeste 0 -- -- 97
2020-09-20 08:00:00 13.3 3 Sur 5 Sur 0 -- -- 96
2020-09-20 07:00:00 14 3 Norte 11 Sur 0 -- -- 94
2020-09-20 06:00:00 15.3 6 Sur 21 Sur 0 -- -- 89
2020-09-20 05:00:00 15 8 Sur 19 Sudoeste 0 -- -- 94
2020-09-20 04:00:00 14.2 5 Sur 10 Sur 0 -- -- 97
2020-09-20 03:00:00 14.1 4 Sur 11 Sur 0 -- -- 96
2020-09-20 02:00:00 14.7 0 Calma 8 Sudoeste 0 -- -- 96
2020-09-20 01:00:00 15.4 5 Sur 10 Sur 0 -- -- 97
2020-09-20 00:00:00 16.3 0 Calma 11 Este 0.2 -- -- 97
2020-09-19 23:00:00 16.3 9 Norte 18 Norte 2.4 -- -- 97
2020-09-19 22:00:00 16.3 3 Sur 6 Sur 0 -- -- 95
2020-09-19 21:00:00 16.8 0 Calma 5 Sur 0 -- -- 94
2020-09-19 20:00:00 17.6 4 Sur 11 Sudoeste 0 -- -- 92
2020-09-19 19:00:00 18.3 4 Sur 11 Sur 0 -- -- 91
2020-09-19 18:00:00 17.4 2 Sudoeste 17 Sudeste 7.2 -- -- 91
2020-09-19 17:00:00 20.9 12 Sudoeste 32 Sur 2.4 -- -- 71
2020-09-19 16:00:00 24.7 6 Oeste 33 Sudoeste 0 -- -- 53
2020-09-19 15:00:00 24.1 11 Sudoeste 30 Sudoeste 0 -- -- 53
2020-09-19 14:00:00 22.2 14 Sur 34 Sur 0 -- -- 59
2020-09-19 13:00:00 22.8 15 Sur 41 Sudoeste 0 -- -- 55
2020-09-19 12:00:00 24.3 9 Sudeste 31 Sur 0 -- -- 53
2020-09-19 11:00:00 22 5 Nordeste 30 Sudoeste 0 -- -- 58
2020-09-19 10:00:00 22 7 Sur 27 Sudoeste 0 -- -- 59
2020-09-19 09:00:00 20.2 9 Sudoeste 37 Sur 0 -- -- 59
2020-09-19 08:00:00 20.4 13 Sur 27 Sur 0 -- -- 59
2020-09-19 07:00:00 20.7 5 Sudoeste 28 Sur 0 -- -- 62
2020-09-19 06:00:00 20.9 6 Sur 37 Sur 0 -- -- 62
2020-09-19 05:00:00 20.5 5 Sudoeste 37 Sur 0 -- -- 64
2020-09-19 04:00:00 20.3 5 Sudoeste 21 Sudoeste 0 -- -- 66
2020-09-19 03:00:00 20.3 5 Sur 23 Sur 0 -- -- 69
2020-09-19 02:00:00 21.2 9 Sur 40 Sudoeste 0 -- -- 66
2020-09-19 01:00:00 19.2 6 Sur 15 Oeste 0 -- -- 76
2020-09-19 00:00:00 17.2 5 Sur 10 Oeste 0 -- -- 86
2020-09-18 23:00:00 17.5 5 Norte 21 Noroeste 0 -- -- 85
2020-09-18 22:00:00 17.4 4 Noroeste 10 Sur 0 -- -- 89
2020-09-18 21:00:00 18.3 0 Calma 11 Noroeste 0 -- -- 87
2020-09-18 20:00:00 18.9 7 Norte 24 Sur 0.4 -- -- 85
2020-09-18 19:00:00 23.7 8 Este 35 Sur 0 -- -- 55
2020-09-18 18:00:00 26.1 6 Sudeste 26 Sur 0 -- -- 46
2020-09-18 17:00:00 26.6 12 Sudeste 31 Sur 0 -- -- 42
2020-09-18 16:00:00 28.2 5 Sudoeste 33 Sudeste 0 -- -- 42
2020-09-18 15:00:00 26.1 14 Sudeste 35 Sur 0 -- -- 48
2020-09-18 14:00:00 26.4 5 Nordeste 31 Nordeste 0 -- -- 49
2020-09-18 13:00:00 25.8 4 Sur 31 Sur 0 -- -- 50
2020-09-18 12:00:00 25.6 11 Sur 29 Sur 0 -- -- 48
2020-09-18 11:00:00 22.8 11 Sur 35 Sudoeste 0 -- -- 58
2020-09-18 10:00:00 18.9 4 Sudoeste 15 Sur 0 -- -- 84
2020-09-18 09:00:00 18.9 4 Sur 13 Sur 0 -- -- 83
2020-09-18 08:00:00 22.9 6 Este 32 Sur 0 -- -- 60
2020-09-18 07:00:00 22.3 5 Sudeste 25 Este 0 -- -- 51
2020-09-18 06:00:00 22 5 Sudoeste 14 Este 0 -- -- 57
2020-09-18 05:00:00 24.4 4 Sudoeste 32 Sur 0 -- -- 45
2020-09-18 04:00:00 24 3 Sudoeste 23 Sudoeste 0 -- -- 47
2020-09-18 03:00:00 26.8 15 Sur 42 Sur 0 -- -- 39
2020-09-18 02:00:00 24.3 5 Norte 16 Oeste 0 -- -- 51
2020-09-18 01:00:00 26.5 9 Sur 34 Sudeste 0 -- -- 40
2020-09-18 00:00:00 21.4 6 Sudoeste 14 Norte 0 -- -- 59
2020-09-17 23:00:00 19.9 4 Oeste 12 Sur 0 -- -- 72
2020-09-17 22:00:00 19.7 4 Sur 13 Sur 0 -- -- 74
2020-09-17 21:00:00 21.1 0 Calma 6 Sur 0 -- -- 69
2020-09-17 20:00:00 24.2 4 Sur 9 Sur 0 -- -- 59
2020-09-17 19:00:00 27.8 8 Sur 22 Sudeste 0 -- -- 43
2020-09-17 18:00:00 29.6 6 Este 32 Sur 0 -- -- 36
2020-09-17 17:00:00 27.3 3 Sur 7 Sur 0 -- -- 63
2020-09-17 16:00:00 26.6 2 Sur 13 Norte 0 -- -- 61
2020-09-17 15:00:00 27.5 14 Norte 32 Norte 0 -- -- 49
2020-09-17 14:00:00 28.1 16 Norte 26 Norte 0 -- -- 51
2020-09-17 13:00:00 23.6 4 Sur 10 Sur 0 -- -- 77
2020-09-17 12:00:00 24.2 0 Calma 6 Norte 0 -- -- 76
2020-09-17 11:00:00 24.5 0 Calma 5 Sudeste 0 -- -- 69
2020-09-17 10:00:00 20.6 2 Sudeste 9 Sudeste 0 -- -- 81
2020-09-17 09:00:00 16.6 2 Sur 9 Sur 0 -- -- 89
2020-09-17 08:00:00 16 3 Sur 9 Sur 0 -- -- 89
2020-09-17 07:00:00 16.4 4 Sudoeste 10 Sur 0 -- -- 87
2020-09-17 06:00:00 16.3 5 Sudoeste 13 Sur 0 -- -- 87
2020-09-17 05:00:00 16.9 0 Calma 5 Sudoeste 0 -- -- 86
2020-09-17 04:00:00 17 0 Calma 5 Sur 0 -- -- 86
2020-09-17 03:00:00 17.1 2 Sur 6 Sudoeste 0 -- -- 86
2020-09-17 02:00:00 17.2 3 Sur 8 Sur 0 -- -- 86
2020-09-17 01:00:00 17.3 3 Sudoeste 6 Sudoeste 0 -- -- 87
2020-09-17 00:00:00 17.9 2 Sudoeste 12 Sur 0 -- -- 86
2020-09-16 23:00:00 18.8 3 Sur 10 Sur 0 -- -- 82
2020-09-16 22:00:00 19.6 2 Sur 12 Sudoeste 0 -- -- 80
2020-09-16 21:00:00 21.2 4 Sur 6 Sudoeste 0 -- -- 74
2020-09-16 20:00:00 23.8 2 Sur 7 Sur 0 -- -- 65
2020-09-16 19:00:00 27 4 Sur 19 Noroeste 0 -- -- 54
2020-09-16 18:00:00 29.1 10 Norte 19 Norte 0 -- -- 44
2020-09-16 17:00:00 29.4 7 Norte 19 Norte 0 -- -- 44
2020-09-16 16:00:00 29.8 9 Norte 19 Norte 0 -- -- 45
2020-09-16 15:00:00 29.2 9 Norte 21 Nordeste 0 -- -- 50
2020-09-16 14:00:00 28.1 11 Norte 17 Nordeste 0 -- -- 51
2020-09-16 13:00:00 27.6 12 Norte 20 Norte 0 -- -- 51
2020-09-16 12:00:00 25.6 10 Norte 13 Norte 0 -- -- 61
2020-09-16 11:00:00 23 4 Norte 7 Norte 0 -- -- 71
2020-09-16 10:00:00 20.3 2 Sur 4 Sur 0 -- -- 80
2020-09-16 09:00:00 16.4 0 Calma 5 Sur 0 -- -- 90
2020-09-16 08:00:00 15.6 0 Calma 4 Sur 0 -- -- 91
2020-09-16 07:00:00 15.6 0 Calma 3 Sudoeste 0 -- -- 91
2020-09-16 06:00:00 16.1 0 Calma 3 Sur 0 -- -- 90
2020-09-16 05:00:00 16.3 0 Calma 4 Sur 0 -- -- 90
2020-09-16 04:00:00 16.4 0 Calma 5 Sur 0 -- -- 89
2020-09-16 03:00:00 16.6 4 Sur 6 Sur 0 -- -- 90
2020-09-16 02:00:00 17 0 Calma 4 Sur 0 -- -- 87
2020-09-16 01:00:00 17.7 3 Sur 5 Sudoeste 0 -- -- 85
2020-09-16 00:00:00 18.1 3 Sur 5 Sur 0 -- -- 84
2020-09-15 23:00:00 18.7 3 Sur 10 Sur 0 -- -- 82
2020-09-15 22:00:00 19.4 4 Sur 7 Sudoeste 0 -- -- 79
2020-09-15 21:00:00 20.8 3 Sur 6 Sur 0 -- -- 77
2020-09-15 20:00:00 23.2 2 Sur 8 Sur 0 -- -- 70
2020-09-15 19:00:00 26.4 4 Noroeste 14 Norte 0 -- -- 57
2020-09-15 18:00:00 27.2 6 Norte 19 Norte 0 -- -- 52
2020-09-15 17:00:00 27.6 13 Norte 26 Norte 0 -- -- 51
2020-09-15 16:00:00 31.7 6 Norte 22 Este 0 -- -- 41
2020-09-15 15:00:00 31.5 8 Sur 18 Sur 0 -- -- 37
2020-09-15 14:00:00 30.5 9 Sur 23 Sur 0 -- -- 36
2020-09-15 13:00:00 28.4 8 Sudoeste 28 Sudoeste 0 -- -- 41
2020-09-15 12:00:00 26.6 8 Sur 20 Sur 0 -- -- 60
2020-09-15 11:00:00 21.4 3 Sudeste 7 Sur 0 -- -- 79
2020-09-15 10:00:00 21.1 5 Sur 8 Sur 0 -- -- 72
2020-09-15 09:00:00 19.8 3 Sur 9 Sur 0 -- -- 74
2020-09-15 08:00:00 17.4 0 Calma 10 Noroeste 0 -- -- 92
2020-09-15 07:00:00 17.7 5 Norte 9 Norte 0.2 -- -- 89
2020-09-15 06:00:00 18.3 5 Noroeste 23 Sudoeste 0.4 -- -- 85
2020-09-15 05:00:00 22 11 Sur 35 Sur 0 -- -- 62
2020-09-15 04:00:00 20 3 Noroeste 12 Norte 0 -- -- 71
2020-09-15 03:00:00 21.5 5 Sudeste 25 Norte 0 -- -- 62
2020-09-15 02:00:00 22.8 6 Sudoeste 19 Oeste 0 -- -- 48
2020-09-15 01:00:00 19.5 4 Sur 9 Sur 0 -- -- 68
2020-09-15 00:00:00 20.5 2 Sur 11 Norte 0 -- -- 66
2020-09-14 23:00:00 20.6 4 Noroeste 12 Noroeste 0 -- -- 61
2020-09-14 22:00:00 21.5 6 Sur 10 Sur 0 -- -- 58
2020-09-14 21:00:00 22.4 5 Sur 8 Sur 0 -- -- 58
2020-09-14 20:00:00 24.2 5 Sur 8 Sur 0 -- -- 55
2020-09-14 19:00:00 27.4 5 Sur 15 Sur 0 -- -- 43
2020-09-14 18:00:00 31.4 8 Sudoeste 24 Sudoeste 0 -- -- 29
2020-09-14 17:00:00 32 4 Sur 27 Sur 0 -- -- 31
2020-09-14 16:00:00 34.2 10 Sur 26 Sur 0 -- -- 25
2020-09-14 15:00:00 34.1 9 Sur 28 Sur 0 -- -- 27
2020-09-14 14:00:00 33.3 14 Sur 37 Sur 0 -- -- 29
2020-09-14 13:00:00 32.5 11 Sur 27 Sur 0 -- -- 31
2020-09-14 12:00:00 31.4 11 Sur 33 Sur 0 -- -- 33
2020-09-14 11:00:00 30.2 11 Sur 35 Sudoeste 0 -- -- 34
2020-09-14 10:00:00 28.7 5 Sur 30 Sur 0 -- -- 37
2020-09-14 09:00:00 26.1 9 Sur 29 Sur 0 -- -- 40
2020-09-14 08:00:00 25.8 12 Sur 30 Sur 0 -- -- 39
2020-09-14 07:00:00 26.3 10 Sur 36 Sur 0 -- -- 38
2020-09-14 06:00:00 26.4 12 Sur 33 Sur 0 -- -- 37
2020-09-14 05:00:00 26.3 11 Sur 41 Sur 0 -- -- 37
2020-09-14 04:00:00 26.6 14 Sur 38 Sudoeste 0 -- -- 37
2020-09-14 03:00:00 27.1 10 Sur 32 Sur 0 -- -- 35
2020-09-14 02:00:00 27.4 12 Sur 35 Sudoeste 0 -- -- 33
2020-09-14 01:00:00 27.4 13 Sudoeste 32 Sudoeste 0 -- -- 33
2020-09-14 00:00:00 25.7 8 Sur 25 Sur 0 -- -- 38
2020-09-13 23:00:00 22.5 6 Sur 12 Sur 0 -- -- 54
2020-09-13 22:00:00 19.9 6 Sur 9 Sur 0 -- -- 63
2020-09-13 21:00:00 20.8 2 Sur 5 Sur 0 -- -- 62
2020-09-13 20:00:00 23.5 0 Calma 8 Oeste 0 -- -- 56
2020-09-13 19:00:00 26.9 4 Sur 11 Sur 0 -- -- 49
2020-09-13 18:00:00 30.4 4 Sudoeste 17 Sur 0 -- -- 37
2020-09-13 17:00:00 32.6 6 Sudoeste 27 Sur 0 -- -- 33
2020-09-13 16:00:00 33.7 8 Sur 24 Sur 0 -- -- 32
2020-09-13 15:00:00 33 12 Sur 30 Sur 0 -- -- 33
2020-09-13 14:00:00 32.5 10 Sur 27 Sur 0 -- -- 35
2020-09-13 13:00:00 28.1 10 Norte 25 Norte 0 -- -- 52
2020-09-13 12:00:00 25.3 9 Norte 15 Norte 0 -- -- 60
2020-09-13 11:00:00 22.2 5 Norte 11 Norte 0 -- -- 71
2020-09-13 10:00:00 18.6 4 Sur 10 Sur 0 -- -- 86
2020-09-13 09:00:00 13.9 3 Sur 8 Sudoeste 0 -- -- 96
2020-09-13 08:00:00 13.4 4 Sudeste 10 Sudoeste 0 -- -- 96
2020-09-13 07:00:00 13.5 3 Sur 9 Sur 0 -- -- 96
2020-09-13 06:00:00 13.8 0 Calma 5 Sur 0 -- -- 95
2020-09-13 05:00:00 14.4 3 Sur 5 Sur 0 -- -- 95
2020-09-13 04:00:00 14.7 3 Sur 5 Sur 0 -- -- 94
2020-09-13 03:00:00 15.2 2 Sur 5 Sur 0 -- -- 95
2020-09-13 02:00:00 15.6 2 Sur 4 Sur 0 -- -- 94
2020-09-13 01:00:00 16.2 0 Calma 6 Sur 0 -- -- 93
2020-09-13 00:00:00 16.7 3 Sur 9 Sudoeste 0 -- -- 92
2020-09-12 23:00:00 17.3 3 Sur 7 Sur 0 -- -- 90
2020-09-12 22:00:00 18.3 3 Sur 4 Sur 0 -- -- 87
2020-09-12 21:00:00 20.2 2 Sur 5 Sur 0 -- -- 82
2020-09-12 20:00:00 22.7 0 Calma 16 Norte 0 -- -- 73
2020-09-12 19:00:00 24.8 8 Norte 15 Norte 0 -- -- 62
2020-09-12 18:00:00 25.6 9 Norte 21 Noroeste 0 -- -- 56
2020-09-12 17:00:00 25.7 9 Norte 22 Norte 0 -- -- 57
2020-09-12 16:00:00 25.9 13 Norte 22 Norte 0 -- -- 57
2020-09-12 15:00:00 25.8 8 Norte 21 Norte 0 -- -- 61
2020-09-12 14:00:00 24.9 11 Norte 20 Nordeste 0 -- -- 65
2020-09-12 13:00:00 23.5 14 Norte 24 Norte 0 -- -- 67
2020-09-12 12:00:00 22.4 12 Norte 21 Norte 0 -- -- 70
2020-09-12 11:00:00 20.5 5 Norte 8 Norte 0 -- -- 77
2020-09-12 10:00:00 17.8 2 Sudeste 5 Sur 0 -- -- 92
2020-09-12 09:00:00 13.8 0 Calma 3 Sur 0 -- -- 97
2020-09-12 08:00:00 13.4 0 Calma 5 Sur 0 -- -- 97
2020-09-12 07:00:00 13.5 0 Calma 3 Sur 0 -- -- 97
2020-09-12 06:00:00 13.8 0 Calma 4 Sudeste 0 -- -- 96
2020-09-12 05:00:00 14.3 2 Sur 4 Sudoeste 0 -- -- 96
2020-09-12 04:00:00 14.4 0 Calma 3 Sur 0 -- -- 95
2020-09-12 03:00:00 14.9 0 Calma 5 Oeste 0 -- -- 95
2020-09-12 02:00:00 15.4 2 Sur 5 Sudoeste 0 -- -- 95
2020-09-12 01:00:00 16 2 Sur 5 Sur 0 -- -- 94
2020-09-12 00:00:00 17 2 Sur 4 Sur 0 -- -- 93
2020-09-11 23:00:00 17.8 0 Calma 3 Sur 0 -- -- 92
2020-09-11 22:00:00 18.6 3 Sur 4 Sur 0 -- -- 89
2020-09-11 21:00:00 20.5 0 Calma 12 Noroeste 0 -- -- 83
2020-09-11 20:00:00 22.5 7 Norte 18 Norte 0 -- -- 76
2020-09-11 19:00:00 24.2 5 Norte 15 Norte 0 -- -- 62
2020-09-11 18:00:00 24.6 9 Norte 23 Norte 0 -- -- 60
2020-09-11 17:00:00 24.3 10 Norte 23 Norte 0 -- -- 61
2020-09-11 16:00:00 24.3 9 Norte 21 Nordeste 0 -- -- 65
2020-09-11 15:00:00 24.1 8 Norte 19 Norte 0 -- -- 67
2020-09-11 14:00:00 23.5 7 Norte 20 Norte 0 -- -- 70
2020-09-11 13:00:00 21.3 13 Norte 21 Norte 0 -- -- 75
2020-09-11 12:00:00 20 8 Norte 14 Nordeste 0 -- -- 79
2020-09-11 11:00:00 18.8 5 Norte 8 Norte 0 -- -- 87
2020-09-11 10:00:00 16.7 2 Noroeste 9 Norte 0 -- -- 93
2020-09-11 09:00:00 16.6 0 Calma 2 Norte 0 -- -- 94
2020-09-11 08:00:00 16 0 Calma 3 Sur 0 -- -- 94
2020-09-11 07:00:00 15.9 0 Calma 2 Sur 0 -- -- 94
2020-09-11 06:00:00 15.6 0 Calma 4 Sur 0 -- -- 94
2020-09-11 05:00:00 15.2 2 Sur 4 Sur 0 -- -- 95
2020-09-11 04:00:00 15.1 0 Calma 4 Sur 0 -- -- 94
2020-09-11 03:00:00 14.9 0 Calma 3 Sur 0 -- -- 94
2020-09-11 02:00:00 14.6 0 Calma 3 Sudoeste 0 -- -- 94
2020-09-11 01:00:00 14.6 0 Calma 6 Sudoeste 0 -- -- 93
2020-09-11 00:00:00 14.8 0 Calma 8 Sudoeste 0 -- -- 92
2020-09-10 23:00:00 15.5 2 Sur 7 Sur 0 -- -- 90
2020-09-10 22:00:00 16.5 2 Sur 4 Sudoeste 0 -- -- 88
2020-09-10 21:00:00 18 0 Calma 3 Sur 0 -- -- 82
2020-09-10 20:00:00 20.6 0 Calma 14 Noroeste 0 -- -- 73
2020-09-10 19:00:00 22.6 8 Norte 17 Norte 0 -- -- 65
2020-09-10 18:00:00 23.2 9 Norte 21 Norte 0 -- -- 62
2020-09-10 17:00:00 23.9 12 Norte 21 Norte 0 -- -- 55
2020-09-10 16:00:00 24.6 8 Norte 19 Norte 0 -- -- 55
2020-09-10 15:00:00 24.5 10 Norte 21 Norte 0 -- -- 55
2020-09-10 14:00:00 24.2 10 Norte 21 Norte 0 -- -- 54
2020-09-10 13:00:00 23.6 12 Norte 22 Norte 0 -- -- 53
2020-09-10 12:00:00 22.4 9 Norte 15 Norte 0 -- -- 57
2020-09-10 11:00:00 20.4 5 Norte 9 Norte 0 -- -- 64
2020-09-10 10:00:00 18.2 2 Sudeste 4 Sur 0 -- -- 77
2020-09-10 09:00:00 13.2 0 Calma 5 Sudoeste 0 -- -- 92
2020-09-10 08:00:00 13.1 2 Sudoeste 5 Sur 0 -- -- 91
2020-09-10 07:00:00 13.6 0 Calma 5 Norte 0 -- -- 89
2020-09-10 06:00:00 13.6 3 Sur 4 Sur 0 -- -- 88
2020-09-10 05:00:00 13.7 0 Calma 6 Sur 0 -- -- 86
2020-09-10 04:00:00 14.2 0 Calma 6 Sudoeste 0 -- -- 85
2020-09-10 03:00:00 14.9 0 Calma 5 Oeste 0 -- -- 83
2020-09-10 02:00:00 14.3 3 Sur 9 Sur 0 -- -- 82
2020-09-10 01:00:00 15 3 Sur 10 Sur 0 -- -- 81
2020-09-10 00:00:00 15.8 2 Sur 8 Sur 0 -- -- 78
2020-09-09 23:00:00 16 4 Sur 10 Sur 0 -- -- 81
2020-09-09 22:00:00 17.1 2 Sur 8 Sur 0 -- -- 81
2020-09-09 21:00:00 18.9 0 Calma 5 Norte 0 -- -- 72
2020-09-09 20:00:00 21.4 4 Norte 14 Noroeste 0 -- -- 65
2020-09-09 19:00:00 23.6 9 Norte 24 Norte 0 -- -- 61
2020-09-09 18:00:00 25.3 12 Norte 29 Norte 0 -- -- 45
2020-09-09 17:00:00 25.5 16 Norte 34 Noroeste 0 -- -- 43
2020-09-09 16:00:00 25.7 12 Norte 26 Norte 0 -- -- 45
2020-09-09 15:00:00 25.7 13 Norte 27 Norte 0 -- -- 47
2020-09-09 14:00:00 25.1 8 Norte 16 Nordeste 0 -- -- 47
2020-09-09 13:00:00 24.1 10 Norte 16 Norte 0 -- -- 50
2020-09-09 12:00:00 22.6 11 Norte 17 Nordeste 0 -- -- 51
2020-09-09 11:00:00 21.1 3 Nordeste 4 Nordeste 0 -- -- 69
2020-09-09 10:00:00 17.1 0 Calma 6 Sur 0 -- -- 81
2020-09-09 09:00:00 12.2 3 Sur 8 Sur 0 -- -- 93
2020-09-09 08:00:00 11.6 0 Calma 4 Sudoeste 0 -- -- 93
2020-09-09 07:00:00 11.9 0 Calma 5 Sudeste 0 -- -- 91
2020-09-09 06:00:00 11.8 3 Sur 6 Sur 0 -- -- 91
2020-09-09 05:00:00 11.7 3 Sur 5 Sur 0 -- -- 91
2020-09-09 04:00:00 12.2 2 Sur 8 Sur 0 -- -- 90
2020-09-09 03:00:00 12.2 0 Calma 8 Sur 0 -- -- 89
2020-09-09 02:00:00 12.3 4 Sur 8 Sur 0 -- -- 89
2020-09-09 01:00:00 12.8 3 Sur 5 Sur 0 -- -- 87
2020-09-09 00:00:00 13.1 2 Sur 4 Sur 0 -- -- 86
2020-09-08 23:00:00 13.7 0 Calma 9 Sudoeste 0 -- -- 84
2020-09-08 22:00:00 14.8 3 Sur 10 Sudoeste 0 -- -- 80
2020-09-08 21:00:00 16.3 2 Sur 8 Sur 0 -- -- 74
2020-09-08 20:00:00 18.6 5 Sur 13 Norte 0 -- -- 66
2020-09-08 19:00:00 21.8 5 Noroeste 17 Norte 0 -- -- 51
2020-09-08 18:00:00 22.3 9 Norte 20 Nordeste 0 -- -- 47
2020-09-08 17:00:00 22.5 10 Norte 20 Noroeste 0 -- -- 45
2020-09-08 16:00:00 23.1 11 Norte 23 Norte 0 -- -- 45
2020-09-08 15:00:00 23.1 9 Norte 23 Norte 0 -- -- 47
2020-09-08 14:00:00 22.4 10 Norte 23 Nordeste 0 -- -- 49
2020-09-08 13:00:00 21.2 12 Norte 20 Nordeste 0 -- -- 55
2020-09-08 12:00:00 20 13 Norte 19 Norte 0 -- -- 53
2020-09-08 11:00:00 17.7 4 Norte 7 Norte 0 -- -- 68
2020-09-08 10:00:00 14.6 0 Calma 6 Sur 0 -- -- 87
2020-09-08 09:00:00 9.4 2 Sudeste 5 Sudoeste 0 -- -- 98
2020-09-08 08:00:00 9.2 0 Calma 9 Sudoeste 0 -- -- 97
2020-09-08 07:00:00 9.4 2 Sur 6 Sur 0 -- -- 97
2020-09-08 06:00:00 9.7 3 Sur 8 Sur 0 -- -- 97
2020-09-08 05:00:00 9.8 2 Sur 4 Sur 0 -- -- 96
2020-09-08 04:00:00 10 0 Calma 3 Sur 0 -- -- 96
2020-09-08 03:00:00 10.3 0 Calma 3 Sur 0 -- -- 95
2020-09-08 02:00:00 10.9 0 Calma 3 Sur 0 -- -- 94
2020-09-08 01:00:00 11.6 0 Calma 4 Sur 0 -- -- 93
2020-09-08 00:00:00 12.1 0 Calma 4 Sur 0 -- -- 92
2020-09-07 23:00:00 12.5 0 Calma 4 Sudoeste 0 -- -- 89
2020-09-07 22:00:00 13.5 0 Calma 5 Norte 0 -- -- 84
2020-09-07 21:00:00 15.8 3 Noroeste 16 Norte 0 -- -- 73
2020-09-07 20:00:00 17.2 8 Norte 28 Noroeste 0 -- -- 66
2020-09-07 19:00:00 18 15 Norte 34 Norte 0 -- -- 63
2020-09-07 18:00:00 18.8 14 Norte 31 Norte 0 -- -- 56
2020-09-07 17:00:00 19 15 Norte 32 Noroeste 0 -- -- 47
2020-09-07 16:00:00 19.2 16 Norte 33 Norte 0 -- -- 50
2020-09-07 15:00:00 19.2 15 Norte 30 Norte 0 -- -- 50
2020-09-07 14:00:00 19.3 12 Norte 27 Noroeste 0 -- -- 55
2020-09-07 13:00:00 17.2 11 Norte 23 Norte 0 -- -- 62
2020-09-07 12:00:00 16.1 9 Norte 18 Nordeste 0 -- -- 71
2020-09-07 11:00:00 16.7 9 Norte 17 Nordeste 0 -- -- 71
2020-09-07 10:00:00 12.1 0 Calma 3 Sur 0 -- -- 94
2020-09-07 09:00:00 10.3 2 Sur 4 Sur 0 -- -- 95
2020-09-07 08:00:00 10.6 0 Calma 3 Oeste 0 -- -- 94
2020-09-07 07:00:00 11.4 0 Calma 3 Sudoeste 0 -- -- 93
2020-09-07 06:00:00 11.7 0 Calma 4 Sur 0 -- -- 92
2020-09-07 05:00:00 12.8 0 Calma 4 Norte 0 -- -- 89
2020-09-07 04:00:00 13.5 0 Calma 11 Norte 0 -- -- 86
2020-09-07 03:00:00 14 7 Norte 13 Noroeste 0 -- -- 83
2020-09-07 02:00:00 14.5 6 Norte 14 Noroeste 0 -- -- 80
2020-09-07 01:00:00 14.8 8 Norte 18 Norte 0 -- -- 78
2020-09-07 00:00:00 15 8 Norte 18 Nordeste 0 -- -- 77
2020-09-06 23:00:00 15.3 9 Norte 26 Nordeste 0 -- -- 74
2020-09-06 22:00:00 15.7 11 Norte 21 Norte 0 -- -- 74
2020-09-06 21:00:00 16.1 10 Norte 20 Norte 0 -- -- 71
2020-09-06 20:00:00 16.9 10 Norte 23 Norte 0 -- -- 66
2020-09-06 19:00:00 17.7 11 Norte 27 Norte 0 -- -- 64
2020-09-06 18:00:00 18.3 14 Norte 25 Norte 0 -- -- 69
2020-09-06 17:00:00 19.2 12 Norte 24 Norte 0 -- -- 60
2020-09-06 16:00:00 19.8 14 Norte 28 Norte 0 -- -- 61
2020-09-06 15:00:00 19.5 10 Norte 23 Norte 0 -- -- 64
2020-09-06 14:00:00 19.5 9 Norte 19 Norte 0 -- -- 61
2020-09-06 13:00:00 18.1 5 Norte 14 Noroeste 0 -- -- 70
2020-09-06 12:00:00 17.7 3 Nordeste 14 Este 0 -- -- 73
2020-09-06 11:00:00 15.6 2 Oeste 9 Norte 0 -- -- 95
2020-09-06 10:00:00 15.2 5 Norte 10 Norte 0 -- -- 97
2020-09-06 09:00:00 15.1 3 Sudeste 5 Sudeste 0 -- -- 97
2020-09-06 08:00:00 14.9 0 Calma 3 Sudeste 0 -- -- 97
2020-09-06 07:00:00 15 0 Calma 2 Sur 0 -- -- 97
2020-09-06 06:00:00 15.1 0 Calma 5 Noroeste 0 -- -- 97
2020-09-06 05:00:00 15.1 4 Norte 9 Norte 0 -- -- 96
2020-09-06 04:00:00 15.3 5 Norte 17 Noroeste 0.2 -- -- 95
2020-09-06 03:00:00 15.8 5 Norte 13 Noroeste 0.2 -- -- 92
2020-09-06 02:00:00 16.3 3 Norte 15 Noroeste 0 -- -- 89
2020-09-06 01:00:00 16.5 7 Norte 14 Norte 0 -- -- 89
2020-09-06 00:00:00 16.8 8 Norte 15 Nordeste 0 -- -- 86
2020-09-05 23:00:00 17.1 9 Norte 19 Norte 0 -- -- 87
2020-09-05 22:00:00 17.6 10 Norte 18 Norte 0 -- -- 86
2020-09-05 21:00:00 18.3 10 Norte 18 Norte 0 -- -- 82
2020-09-05 20:00:00 18.8 9 Norte 14 Norte 0 -- -- 80
2020-09-05 19:00:00 19.4 5 Norte 13 Norte 0 -- -- 78
2020-09-05 18:00:00 19.8 8 Norte 17 Noroeste 0 -- -- 78
2020-09-05 17:00:00 20.6 8 Norte 17 Norte 0 -- -- 75
2020-09-05 16:00:00 21.2 6 Norte 12 Norte 0 -- -- 74
2020-09-05 15:00:00 20.3 4 Norte 16 Norte 0 -- -- 78
2020-09-05 14:00:00 20.7 9 Norte 19 Nordeste 0 -- -- 76
2020-09-05 13:00:00 22.2 3 Sur 15 Noroeste 0 -- -- 71
2020-09-05 12:00:00 21.8 5 Nordeste 16 Norte 0 -- -- 73
2020-09-05 11:00:00 22.8 3 Nordeste 6 Norte 0 -- -- 68
2020-09-05 10:00:00 18.4 0 Calma 8 Sur 0 -- -- 82
2020-09-05 09:00:00 14.4 3 Sur 5 Sur 0 -- -- 93
2020-09-05 08:00:00 13.9 0 Calma 4 Sur 0 -- -- 92
2020-09-05 07:00:00 14.3 0 Calma 6 Sur 0 -- -- 90
2020-09-05 06:00:00 14.8 3 Sur 6 Sur 0 -- -- 88
2020-09-05 05:00:00 15 2 Sur 6 Sudoeste 0 -- -- 86
2020-09-05 04:00:00 15.5 0 Calma 7 Sur 0 -- -- 82
2020-09-05 03:00:00 16.5 3 Sur 5 Sur 0 -- -- 79
2020-09-05 02:00:00 17.6 4 Sur 6 Sur 0 -- -- 73
2020-09-05 01:00:00 17.5 4 Sur 6 Sur 0 -- -- 74
2020-09-05 00:00:00 17.9 3 Sur 10 Sur 0 -- -- 76
2020-09-04 23:00:00 18.7 4 Sur 7 Sur 0 -- -- 73
2020-09-04 22:00:00 19.8 3 Sur 10 Sur 0 -- -- 72
2020-09-04 21:00:00 21.2 4 Sur 13 Sur 0 -- -- 66
2020-09-04 20:00:00 23 5 Sur 11 Sudoeste 0 -- -- 56
2020-09-04 19:00:00 27.2 0 Calma 8 Sudoeste 0 -- -- 46
2020-09-04 18:00:00 30 3 Sudoeste 12 Sudoeste 0 -- -- 36
2020-09-04 17:00:00 32.4 3 Sudoeste 21 Sur 0 -- -- 30
2020-09-04 16:00:00 33.2 9 Sur 26 Sur 0 -- -- 24
2020-09-04 15:00:00 32.8 9 Sur 27 Sur 0 -- -- 27
2020-09-04 14:00:00 32 12 Sur 28 Sudoeste 0 -- -- 29
2020-09-04 13:00:00 30.7 13 Sur 28 Sur 0 -- -- 31
2020-09-04 12:00:00 29.4 11 Sur 24 Sur 0 -- -- 36
2020-09-04 11:00:00 27.1 3 Este 11 Sur 0 -- -- 47
2020-09-04 10:00:00 22.1 3 Sur 10 Sur 0 -- -- 65
2020-09-04 09:00:00 16.3 5 Sur 12 Sur 0 -- -- 76
2020-09-04 08:00:00 15.6 5 Sur 11 Sur 0 -- -- 76
2020-09-04 07:00:00 15 6 Sur 10 Sur 0 -- -- 79
2020-09-04 06:00:00 14.5 5 Sur 9 Sur 0 -- -- 82
2020-09-04 05:00:00 13.3 3 Sur 6 Sur 0 -- -- 88
2020-09-04 04:00:00 13.6 4 Sur 8 Sur 0 -- -- 86
2020-09-04 03:00:00 13.3 3 Sur 7 Sur 0 -- -- 91
2020-09-04 02:00:00 13.5 3 Sur 6 Sur 0 -- -- 88
2020-09-04 01:00:00 14.5 3 Sur 6 Sur 0 -- -- 84
2020-09-04 00:00:00 15.1 3 Sur 5 Sur 0 -- -- 86
2020-09-03 23:00:00 16.1 2 Sur 6 Sudoeste 0 -- -- 82
2020-09-03 22:00:00 16.9 0 Calma 6 Sudeste 0 -- -- 81
2020-09-03 21:00:00 18.4 2 Sudoeste 8 Sur 0 -- -- 78
2020-09-03 20:00:00 20.6 2 Sudoeste 7 Sudoeste 0 -- -- 71
2020-09-03 19:00:00 23.8 3 Oeste 10 Noroeste 0 -- -- 62
2020-09-03 18:00:00 25 6 Norte 15 Norte 0 -- -- 52
2020-09-03 17:00:00 25.1 9 Norte 15 Norte 0 -- -- 52
2020-09-03 16:00:00 25.7 8 Norte 17 Nordeste 0 -- -- 49
2020-09-03 15:00:00 25.2 8 Norte 15 Norte 0 -- -- 50
2020-09-03 14:00:00 24.1 10 Norte 19 Norte 0 -- -- 52
2020-09-03 13:00:00 22.7 13 Norte 20 Norte 0 -- -- 54
2020-09-03 12:00:00 21.2 8 Norte 13 Norte 0 -- -- 61
2020-09-03 11:00:00 18.6 6 Norte 9 Norte 0 -- -- 68
2020-09-03 10:00:00 16.1 2 Sudeste 6 Sur 0 -- -- 83
2020-09-03 09:00:00 10.3 3 Sur 5 Sur 0 -- -- 97
2020-09-03 08:00:00 9.7 0 Calma 3 Sudeste 0 -- -- 96
2020-09-03 07:00:00 10 0 Calma 5 Sur 0 -- -- 96
2020-09-03 06:00:00 10.2 0 Calma 5 Sudoeste 0 -- -- 95
2020-09-03 05:00:00 10.2 3 Sur 8 Sur 0 -- -- 95
2020-09-03 04:00:00 10.5 2 Sur 6 Sur 0 -- -- 95
2020-09-03 03:00:00 10.7 3 Sur 8 Sudoeste 0 -- -- 94
2020-09-03 02:00:00 10.9 4 Sur 8 Sur 0 -- -- 93
2020-09-03 01:00:00 11.2 0 Calma 5 Sur 0 -- -- 92
2020-09-03 00:00:00 11.7 2 Sur 6 Sur 0 -- -- 91
2020-09-02 23:00:00 12.6 0 Calma 5 Sur 0 -- -- 89
2020-09-02 22:00:00 13.7 3 Sur 6 Sudoeste 0 -- -- 85
2020-09-02 21:00:00 15.6 2 Sur 10 Noroeste 0 -- -- 78
2020-09-02 20:00:00 18.5 4 Norte 17 Noroeste 0 -- -- 62
2020-09-02 19:00:00 20.8 9 Norte 26 Noroeste 0 -- -- 46
2020-09-02 18:00:00 21.1 12 Norte 24 Nordeste 0 -- -- 45
2020-09-02 17:00:00 21.4 10 Norte 26 Noroeste 0 -- -- 47
2020-09-02 16:00:00 21.8 13 Norte 24 Norte 0 -- -- 45
2020-09-02 15:00:00 21.8 13 Norte 25 Norte 0 -- -- 45
2020-09-02 14:00:00 21.4 13 Norte 26 Nordeste 0 -- -- 44
2020-09-02 13:00:00 21.2 13 Norte 25 Norte 0 -- -- 48
2020-09-02 12:00:00 19.9 10 Norte 19 Nordeste 0 -- -- 57
2020-09-02 11:00:00 18.3 5 Norte 10 Norte 0 -- -- 64
2020-09-02 10:00:00 15.6 3 Sudeste 8 Sur 0 -- -- 79
2020-09-02 09:00:00 10.4 2 Sur 8 Sudoeste 0 -- -- 96
2020-09-02 08:00:00 10.1 3 Sur 8 Sudoeste 0 -- -- 96
2020-09-02 07:00:00 10.5 2 Sur 6 Sudoeste 0 -- -- 95
2020-09-02 06:00:00 10.8 3 Sur 9 Sur 0 -- -- 95
2020-09-02 05:00:00 11.3 3 Sur 9 Sur 0 -- -- 93
2020-09-02 04:00:00 12 2 Sur 9 Sur 0 -- -- 93
2020-09-02 03:00:00 12.9 0 Calma 6 Sudoeste 0 -- -- 93
2020-09-02 02:00:00 14.1 0 Calma 4 Sudoeste 0 -- -- 92
2020-09-02 01:00:00 15 0 Calma 4 Sudoeste 0 -- -- 91
2020-09-02 00:00:00 15.7 0 Calma 3 Sur 0 -- -- 89
2020-09-01 23:00:00 16.3 3 Sur 5 Noroeste 0 -- -- 87
2020-09-01 22:00:00 17.1 0 Calma 9 Nordeste 0 -- -- 82
2020-09-01 21:00:00 18.2 6 Norte 14 Norte 0 -- -- 73
2020-09-01 20:00:00 19.5 7 Norte 24 Noroeste 0 -- -- 68
2020-09-01 19:00:00 20.6 11 Norte 19 Noroeste 0 -- -- 62
2020-09-01 18:00:00 21.1 8 Norte 22 Norte 0 -- -- 47
2020-09-01 17:00:00 21.8 11 Norte 22 Noroeste 0 -- -- 51
2020-09-01 16:00:00 21.9 9 Norte 21 Norte 0 -- -- 47
2020-09-01 15:00:00 22.8 10 Norte 21 Norte 0 -- -- 47
2020-09-01 14:00:00 22.3 11 Norte 20 Norte 0 -- -- 45
2020-09-01 13:00:00 21.5 12 Norte 17 Norte 0 -- -- 53
2020-09-01 12:00:00 19.3 9 Norte 13 Norte 0 -- -- 56
2020-09-01 11:00:00 18.9 2 Este 5 Norte 0 -- -- 69
2020-09-01 10:00:00 16.1 0 Calma 4 Sudoeste 0 -- -- 79
2020-09-01 09:00:00 11.1 2 Sur 5 Sur 0 -- -- 92
2020-09-01 08:00:00 9.8 2 Sur 6 Sudoeste 0 -- -- 93
2020-09-01 07:00:00 9.9 4 Sur 6 Sur 0 -- -- 92
2020-09-01 06:00:00 10.5 2 Sur 6 Sur 0 -- -- 91
2020-09-01 05:00:00 11 3 Sur 9 Sur 0 -- -- 89
2020-09-01 04:00:00 11.3 2 Sur 9 Sur 0 -- -- 91
2020-09-01 03:00:00 11.7 0 Calma 7 Sur 0 -- -- 93
2020-09-01 02:00:00 12 4 Sur 8 Sur 0 -- -- 93
2020-09-01 01:00:00 12.4 2 Sudoeste 6 Sudoeste 0 -- -- 93
2020-09-01 00:00:00 13 3 Sudoeste 9 Sur 0 -- -- 91
2020-08-31 23:00:00 13 4 Sur 8 Sur 0 -- -- 90
2020-08-31 22:00:00 13.6 4 Sur 9 Sudoeste 0 -- -- 87
2020-08-31 21:00:00 14.5 2 Sudoeste 10 Sur 0 -- -- 85
2020-08-31 20:00:00 16.5 0 Calma 6 Oeste 0 -- -- 76
2020-08-31 19:00:00 19.1 2 Norte 12 Noroeste 0 -- -- 62
2020-08-31 18:00:00 19.5 5 Norte 17 Norte 0 -- -- 56
2020-08-31 17:00:00 19.8 9 Norte 18 Norte 0 -- -- 55
2020-08-31 16:00:00 20.4 9 Norte 19 Norte 0 -- -- 56
2020-08-31 15:00:00 20.2 9 Norte 21 Nordeste 0 -- -- 56
2020-08-31 14:00:00 19.6 9 Norte 20 Nordeste 0 -- -- 57
2020-08-31 13:00:00 18.9 9 Norte 17 Norte 0 -- -- 62
2020-08-31 12:00:00 17.6 11 Norte 16 Norte 0 -- -- 68
2020-08-31 11:00:00 16.2 4 Nordeste 6 Nordeste 0 -- -- 81
2020-08-31 10:00:00 12.5 3 Sudeste 9 Sur 0 -- -- 100
2020-08-31 09:00:00 8.8 0 Calma 5 Sudoeste 0 -- -- 100
2020-08-31 08:00:00 8.3 0 Calma 5 Sudoeste 0 -- -- 99
2020-08-31 07:00:00 8.6 0 Calma 4 Sudoeste 0 -- -- 99
2020-08-31 06:00:00 9.1 0 Calma 3 Sur 0.2 -- -- 99
2020-08-31 05:00:00 9.7 3 Sur 4 Sur 0 -- -- 99
2020-08-31 04:00:00 10.4 2 Sur 4 Sudoeste 0 -- -- 98
2020-08-31 03:00:00 11 2 Sur 4 Sur 0 -- -- 98
2020-08-31 02:00:00 11.4 0 Calma 3 Sur 0 -- -- 98
2020-08-31 01:00:00 11.9 0 Calma 3 Sur 0 -- -- 97
2020-08-31 00:00:00 12.4 0 Calma 4 Sur 0 -- -- 97
2020-08-30 23:00:00 12.9 2 Sur 4 Oeste 0 -- -- 97
2020-08-30 22:00:00 13.1 0 Calma 7 Sudeste 0.4 -- -- 96
2020-08-30 21:00:00 13.5 0 Calma 6 Norte 0 -- -- 96
2020-08-30 20:00:00 13.9 0 Calma 6 Sudoeste 0.2 -- -- 93
2020-08-30 19:00:00 13.7 2 Norte 26 Norte 1.4 -- -- 93
2020-08-30 18:00:00 15.1 16 Norte 24 Norte 0 -- -- 81
2020-08-30 17:00:00 16.1 9 Norte 17 Norte 0 -- -- 77
2020-08-30 16:00:00 17.2 5 Norte 12 Norte 0 -- -- 70
2020-08-30 15:00:00 15.7 4 Norte 15 Norte 0 -- -- 79
2020-08-30 14:00:00 15.1 6 Nordeste 13 Norte 0 -- -- 82
2020-08-30 13:00:00 14.2 4 Sur 13 Nordeste 0.2 -- -- 92
2020-08-30 12:00:00 14.1 3 Norte 10 Norte 0.2 -- -- 92
2020-08-30 11:00:00 13.7 3 Sudeste 6 Sur 0 -- -- 96
2020-08-30 10:00:00 12.6 3 Sur 13 Sur 1 -- -- 98
2020-08-30 09:00:00 12 0 Calma 11 Sur 0.2 -- -- 98
2020-08-30 08:00:00 11.6 4 Sur 8 Sur 0.6 -- -- 98
2020-08-30 07:00:00 11.5 3 Sur 13 Sur 0.2 -- -- 98
2020-08-30 06:00:00 11.6 3 Sudeste 7 Este 1 -- -- 98
2020-08-30 05:00:00 11.8 2 Norte 9 Sur 0.8 -- -- 98
2020-08-30 04:00:00 11.6 3 Sur 5 Sur 1 -- -- 98
2020-08-30 03:00:00 11.7 4 Sudoeste 7 Sudoeste 0 -- -- 97
2020-08-30 02:00:00 12.1 3 Sur 7 Sudeste 5.4 -- -- 97
2020-08-30 01:00:00 12.5 2 Sur 9 Sudeste 5.2 -- -- 97
2020-08-30 00:00:00 12.8 3 Sudeste 6 Este 7.4 -- -- 97
2020-08-29 23:00:00 13.3 0 Calma 9 Este 3.2 -- -- 97
2020-08-29 22:00:00 13.6 2 Sudeste 9 Norte 1.6 -- -- 97
2020-08-29 21:00:00 13.8 0 Calma 4 Sur 1.4 -- -- 96
2020-08-29 20:00:00 14.1 0 Calma 5 Sudeste 4 -- -- 94
2020-08-29 19:00:00 14.7 3 Sur 7 Sudeste 0.8 -- -- 93
2020-08-29 18:00:00 15.2 3 Sur 6 Sur 0.2 -- -- 92
2020-08-29 17:00:00 15.3 3 Sur 8 Sudoeste 2.8 -- -- 91
2020-08-29 16:00:00 17.7 3 Sudeste 17 Oeste 0 -- -- 69
2020-08-29 15:00:00 18.9 9 Norte 14 Norte 0 -- -- 64
2020-08-29 14:00:00 18.4 5 Norte 18 Sudoeste 0 -- -- 63
2020-08-29 13:00:00 18.5 5 Sudoeste 15 Sudoeste 0 -- -- 66
2020-08-29 12:00:00 17.3 4 Norte 9 Norte 0 -- -- 69
2020-08-29 11:00:00 15.3 3 Sudeste 6 Sudeste 0 -- -- 82
2020-08-29 10:00:00 15 5 Sur 18 Sudeste 0 -- -- 80
2020-08-29 09:00:00 14 5 Sur 20 Sur 0 -- -- 91
2020-08-29 08:00:00 12.7 0 Calma 10 Sur 0 -- -- 98
2020-08-29 07:00:00 12 2 Sudeste 8 Sudeste 0 -- -- 98
2020-08-29 06:00:00 11.7 3 Sur 12 Sur 0 -- -- 97
2020-08-29 05:00:00 11.5 2 Sudoeste 6 Sur 0 -- -- 97
2020-08-29 04:00:00 12.1 2 Norte 7 Sur 0 -- -- 97
2020-08-29 03:00:00 12.8 2 Sudoeste 6 Sudeste 0 -- -- 97
2020-08-29 02:00:00 13.2 2 Sur 6 Sur 0 -- -- 97
2020-08-29 01:00:00 13.7 2 Sudoeste 5 Sudoeste 0 -- -- 97
2020-08-29 00:00:00 13.8 3 Norte 10 Sur 0 -- -- 96
2020-08-28 23:00:00 13.9 2 Sur 5 Sur 0 -- -- 96
2020-08-28 22:00:00 14.4 0 Calma 5 Sur 0.2 -- -- 95
2020-08-28 21:00:00 14.8 3 Sur 8 Norte 0 -- -- 95
2020-08-28 20:00:00 15.4 4 Norte 17 Norte 0.2 -- -- 94
2020-08-28 19:00:00 16.5 6 Norte 11 Norte 0 -- -- 90
2020-08-28 18:00:00 16.6 8 Norte 18 Norte 0 -- -- 91
2020-08-28 17:00:00 15.8 3 Sur 23 Norte 0.8 -- -- 96
2020-08-28 16:00:00 16.8 3 Norte 9 Nordeste 0 -- -- 93
2020-08-28 15:00:00 16.4 2 Sudeste 21 Norte 0.4 -- -- 96
2020-08-28 14:00:00 16.4 7 Norte 21 Norte 0.4 -- -- 93
2020-08-28 13:00:00 17.5 10 Norte 19 Norte 0 -- -- 84
2020-08-28 12:00:00 17.2 8 Norte 17 Norte 0 -- -- 84
2020-08-28 11:00:00 17.1 4 Sudeste 10 Norte 0 -- -- 89
2020-08-28 10:00:00 17.4 4 Este 22 Noroeste 0.2 -- -- 91
2020-08-28 09:00:00 18.5 14 Norte 21 Norte 0.2 -- -- 94
2020-08-28 08:00:00 18.8 3 Norte 8 Norte 0 -- -- 94
2020-08-28 07:00:00 18.8 5 Sur 8 Sur 0 -- -- 95
2020-08-28 06:00:00 18.7 2 Sur 4 Sudoeste 0 -- -- 94
2020-08-28 05:00:00 18.6 0 Calma 3 Sur 0 -- -- 94
2020-08-28 04:00:00 18.5 0 Calma 3 Sur 0 -- -- 94
2020-08-28 03:00:00 18.8 3 Sur 4 Sur 0 -- -- 93
2020-08-28 02:00:00 19.7 0 Calma 9 Norte 0 -- -- 91
2020-08-28 01:00:00 20.4 2 Sudoeste 5 Sur 0 -- -- 89
2020-08-28 00:00:00 20.5 0 Calma 7 Norte 0 -- -- 88